Aviation Digital Data Service (ADDS)

Output produced by METARs form (2058 UTC 24 April 2018)
found at http://aviationweather.gov/adds/metars/
 
KGLS 242052Z 17008KT 10SM CLR 24/16 A3003 RMK AO2 SLP167 T02440156 58019